Isle of Rum, United Kingdom
Current Conditions -  °F | °C
As of 3:50 AM on Friday 31 Oct 2014 (Local Time) from EGPU Reporting Station
Moderate Rain Moderate Rain  
Wind Chill: 57°   Ceiling: 2300
Heat Index: 57°   Visibility: 4mi
Dew Point: 55°   Wind: 23mph
Humidity: 94%   Direction: 170°S
Pressure: 29.62"   Gusts: NA
Location:  57.01°N, 6.28°W
Report Text: EGPU 310350Z AUTO 17020KT 7000 RA FEW018/// BKN023/// 14/13 Q1003
Loading
Personal Weather Stations






























Interactive Weather Map
Tropical Storm Tracking
New forecast layout! Learn more

10-Day Weather Forecast

Advertisements
Track Severe Weather on mobile